Time;durP1;ratioP1;P1;durP2;ratioP2;P2;SDS_P1;SDS_P2;PMS_P1;PMS_P2;Temp;Humidity;BMP_temperature;BMP_pressure;BME280_temperature;BME280_humidity;BME280_pressure;Samples;Min_cycle;Max_cycle;Signal;HPM_P1;HPM_P2
2023/01/05 00:01:03;;;;;;;27.33;6.10;;;11.60;99.90;;;;;;5109026;28;20199;-69
2023/01/05 00:03:31;;;;;;;26.73;5.13;;;11.60;99.90;;;;;;5110632;28;20199;-70
2023/01/05 00:05:59;;;;;;;24.73;4.50;;;11.70;99.90;;;;;;5108996;28;20230;-70
2023/01/05 00:08:26;;;;;;;26.53;4.70;;;11.70;99.90;;;;;;5108964;28;20235;-69
2023/01/05 00:22:31;;;;;;;22.57;5.30;;;11.60;99.90;;;;;;5110680;28;20253;-69
2023/01/05 00:25:15;;;;;;;29.73;4.90;;;11.60;99.90;;;;;;5107373;28;20625;-69
2023/01/05 00:27:44;;;;;;;30.47;4.73;;;11.60;99.90;;;;;;5108287;28;20674;-69
2023/01/05 00:30:14;;;;;;;21.93;4.70;;;11.60;99.90;;;;;;5110250;28;20682;-70
2023/01/05 00:32:42;;;;;;;31.23;5.57;;;11.60;99.90;;;;;;5110265;28;20249;-69
2023/01/05 00:35:11;;;;;;;25.73;4.80;;;11.50;99.90;;;;;;5110435;28;20275;-69
2023/01/05 00:37:38;;;;;;;27.27;6.17;;;11.50;99.90;;;;;;5110224;28;20350;-70
2023/01/05 00:40:10;;;;;;;25.87;6.53;;;11.40;99.90;;;;;;5109687;28;20290;-71
2023/01/05 00:42:38;;;;;;;26.47;4.87;;;11.30;99.90;;;;;;5109410;28;20227;-70
2023/01/05 00:45:08;;;;;;;23.70;5.67;;;11.30;99.90;;;;;;5109879;28;20262;-69
2023/01/05 00:47:35;;;;;;;26.00;4.00;;;11.30;99.90;;;;;;5087450;28;20262;-70
2023/01/05 00:50:03;;;;;;;23.13;4.27;;;11.30;99.90;;;;;;5109362;28;20242;-70
2023/01/05 00:52:29;;;;;;;21.13;3.83;;;11.20;99.90;;;;;;5106978;28;20287;-69
2023/01/05 00:54:56;;;;;;;22.80;4.20;;;11.20;99.90;;;;;;5103272;28;20204;-69
2023/01/05 00:57:23;;;;;;;26.50;4.50;;;11.20;99.90;;;;;;5109633;28;20643;-69
2023/01/05 00:59:50;;;;;;;34.03;5.13;;;11.30;99.90;;;;;;5109256;28;20252;-68
2023/01/05 01:02:17;;;;;;;25.83;4.70;;;11.20;99.90;;;;;;5109045;28;20247;-70
2023/01/05 01:04:44;;;;;;;23.90;4.87;;;11.30;99.90;;;;;;5109643;28;20231;-70
2023/01/05 01:07:10;;;;;;;20.50;4.03;;;11.30;99.90;;;;;;5109684;28;20643;-70
2023/01/05 01:09:39;;;;;;;21.80;3.97;;;11.30;99.90;;;;;;5109976;28;20294;-70
2023/01/05 01:12:06;;;;;;;22.93;4.90;;;11.30;99.90;;;;;;5108041;28;20294;-70
2023/01/05 01:14:33;;;;;;;20.80;3.90;;;11.30;99.90;;;;;;5109630;28;20762;-70
2023/01/05 01:16:59;;;;;;;24.83;4.53;;;11.30;99.90;;;;;;5109344;28;20251;-70
2023/01/05 01:19:27;;;;;;;24.47;4.40;;;11.30;99.90;;;;;;5109396;28;20241;-70
2023/01/05 01:21:54;;;;;;;24.30;4.20;;;11.30;99.90;;;;;;5111315;28;20285;-70
2023/01/05 01:24:24;;;;;;;20.43;4.27;;;11.30;99.90;;;;;;5113621;28;20203;-70
2023/01/05 01:26:51;;;;;;;26.80;5.20;;;11.40;99.90;;;;;;5111404;28;20342;-70
2023/01/05 01:29:18;;;;;;;27.37;4.90;;;11.40;99.90;;;;;;5113332;28;20291;-70
2023/01/05 01:31:49;;;;;;;27.47;4.40;;;11.30;99.90;;;;;;5112814;28;20314;-67
2023/01/05 01:34:16;;;;;;;27.20;5.13;;;11.30;99.90;;;;;;5093978;28;20630;-68
2023/01/05 01:36:43;;;;;;;24.23;5.20;;;11.30;99.90;;;;;;5113466;28;20199;-69
2023/01/05 01:39:11;;;;;;;23.87;5.03;;;11.30;99.90;;;;;;5112956;28;20230;-69
2023/01/05 01:41:38;;;;;;;18.67;4.23;;;11.30;99.90;;;;;;5109896;28;20647;-69
2023/01/05 01:44:42;;;;;;;20.10;4.30;;;11.30;99.90;;;;;;5112399;28;20594;-67
2023/01/05 01:47:15;;;;;;;27.97;4.90;;;11.30;99.90;;;;;;5106767;28;20697;-69
2023/01/05 01:49:42;;;;;;;30.67;5.43;;;11.30;99.90;;;;;;5113500;28;20198;-69
2023/01/05 01:52:09;;;;;;;27.00;4.47;;;11.30;99.90;;;;;;5112913;28;20199;-69
2023/01/05 01:54:36;;;;;;;24.17;4.27;;;11.30;99.90;;;;;;5112597;28;20215;-69
2023/01/05 01:57:03;;;;;;;24.07;5.43;;;11.30;99.90;;;;;;5112780;28;20207;-70
2023/01/05 01:59:30;;;;;;;27.07;5.50;;;11.30;99.90;;;;;;5113351;28;20229;-69
2023/01/05 02:01:59;;;;;;;21.80;4.47;;;11.40;99.90;;;;;;5112750;28;20313;-70
2023/01/05 02:04:30;;;;;;;22.83;4.80;;;11.40;99.90;;;;;;5107723;28;20252;-70
2023/01/05 02:06:58;;;;;;;24.50;4.13;;;11.30;99.90;;;;;;5108531;28;20230;-69
2023/01/05 02:09:25;;;;;;;22.27;4.60;;;11.30;99.90;;;;;;5110287;28;20221;-70
2023/01/05 02:12:36;;;;;;;24.73;4.80;;;11.40;99.90;;;;;;5108038;28;20701;-69
2023/01/05 02:15:15;;;;;;;25.87;5.23;;;11.40;99.90;;;;;;5109856;28;20238;-70
2023/01/05 02:18:08;;;;;;;20.27;4.87;;;11.40;99.90;;;;;;5112315;28;20330;-69
2023/01/05 02:21:12;;;;;;;25.93;4.50;;;11.30;99.90;;;;;;5112346;28;20711;-69
2023/01/05 02:24:27;;;;;;;18.30;4.47;;;11.30;99.90;;;;;;5088122;28;20292;-69
2023/01/05 02:27:08;;;;;;;24.70;4.97;;;11.30;99.90;;;;;;5111037;28;20258;-69
2023/01/05 02:29:37;;;;;;;25.47;4.20;;;11.30;99.90;;;;;;5112035;28;20230;-70
2023/01/05 02:32:17;;;;;;;30.83;5.30;;;11.30;99.90;;;;;;5092838;28;20313;-70
2023/01/05 02:35:03;;;;;;;24.23;4.13;;;11.30;99.90;;;;;;5109987;28;20298;-70
2023/01/05 02:37:44;;;;;;;32.40;5.00;;;11.40;99.90;;;;;;5110555;28;20301;-70
2023/01/05 02:40:14;;;;;;;22.57;4.53;;;11.40;99.90;;;;;;5111662;28;20227;-70
2023/01/05 02:42:44;;;;;;;23.57;4.57;;;11.30;99.90;;;;;;5109089;28;20778;-70
2023/01/05 02:45:15;;;;;;;31.63;5.57;;;11.30;99.90;;;;;;5107724;28;20801;-70
2023/01/05 02:47:45;;;;;;;26.70;4.87;;;11.30;99.90;;;;;;5109513;28;20649;-69
2023/01/05 02:50:12;;;;;;;25.07;4.83;;;11.30;99.90;;;;;;5107842;28;20635;-69
2023/01/05 02:52:56;;;;;;;29.10;4.47;;;11.40;99.90;;;;;;5110695;28;20203;-69
2023/01/05 02:55:47;;;;;;;30.90;4.87;;;11.30;99.90;;;;;;5109594;28;20295;-69
2023/01/05 02:58:24;;;;;;;23.33;4.80;;;11.40;99.90;;;;;;5111877;28;20534;-68
2023/01/05 03:00:58;;;;;;;30.97;5.23;;;11.30;99.90;;;;;;5111374;28;20287;-69
2023/01/05 03:03:39;;;;;;;27.27;5.67;;;11.40;99.90;;;;;;5111939;28;20496;-69
2023/01/05 03:06:15;;;;;;;28.47;5.53;;;11.40;99.90;;;;;;5108840;28;20266;-69
2023/01/05 03:08:53;;;;;;;29.93;5.17;;;11.30;99.90;;;;;;5105619;28;20723;-69
2023/01/05 03:14:17;;;;;;;21.83;4.33;;;11.30;99.90;;;;;;5111147;28;20293;-70
2023/01/05 03:16:47;;;;;;;25.87;5.53;;;11.30;99.90;;;;;;5111351;28;20305;-69
2023/01/05 03:19:38;;;;;;;23.87;5.20;;;11.30;99.90;;;;;;5110775;28;20198;-69
2023/01/05 03:36:54;;;;;;;27.20;5.70;;;11.30;99.90;;;;;;5109470;28;20616;-69
2023/01/05 03:39:25;;;;;;;24.83;4.97;;;11.20;99.90;;;;;;5103751;28;20329;-70
2023/01/05 03:41:53;;;;;;;25.00;4.63;;;11.20;99.90;;;;;;5109973;28;20263;-69
2023/01/05 03:44:20;;;;;;;30.87;4.97;;;11.20;99.90;;;;;;5109719;28;20686;-70
2023/01/05 03:46:47;;;;;;;26.67;5.47;;;11.20;99.90;;;;;;5110918;28;20282;-68
2023/01/05 03:49:16;;;;;;;31.40;5.83;;;11.30;99.90;;;;;;5110421;28;20238;-69
2023/01/05 03:51:43;;;;;;;29.47;5.40;;;11.30;99.90;;;;;;5092131;28;20263;-70
2023/01/05 03:54:09;;;;;;;35.70;5.87;;;11.20;99.90;;;;;;5110737;28;20643;-69
2023/01/05 03:56:37;;;;;;;30.63;5.07;;;11.30;99.90;;;;;;5109775;28;20293;-69
2023/01/05 03:59:03;;;;;;;28.53;4.80;;;11.20;99.90;;;;;;5110536;28;20281;-69
2023/01/05 04:01:31;;;;;;;20.07;4.33;;;11.30;99.90;;;;;;5110235;28;20572;-69
2023/01/05 04:03:58;;;;;;;27.50;4.83;;;11.30;99.90;;;;;;5089922;28;20198;-69
2023/01/05 04:06:25;;;;;;;24.83;5.47;;;11.30;99.90;;;;;;5087859;28;20238;-68
2023/01/05 04:08:52;;;;;;;26.97;5.33;;;11.20;99.90;;;;;;5107454;28;20207;-68
2023/01/05 04:11:21;;;;;;;29.83;5.40;;;11.20;99.90;;;;;;5110049;28;20571;-69
2023/01/05 04:13:48;;;;;;;28.87;5.07;;;11.20;99.90;;;;;;5110344;28;20613;-69
2023/01/05 04:16:16;;;;;;;33.37;6.67;;;11.20;99.90;;;;;;5110034;28;20225;-69
2023/01/05 04:18:43;;;;;;;28.87;5.20;;;11.20;99.90;;;;;;5091828;28;20195;-69
2023/01/05 04:21:10;;;;;;;24.40;5.23;;;11.20;99.90;;;;;;5110129;28;20250;-69
2023/01/05 04:23:36;;;;;;;28.30;5.03;;;11.20;99.90;;;;;;5089304;28;20248;-69
2023/01/05 04:26:03;;;;;;;25.70;5.00;;;11.20;99.90;;;;;;5109538;28;20222;-69
2023/01/05 04:28:30;;;;;;;31.93;5.87;;;11.20;99.90;;;;;;5110242;28;20238;-70
2023/01/05 04:30:57;;;;;;;27.00;4.97;;;11.20;99.90;;;;;;5109646;28;20292;-69
2023/01/05 04:33:24;;;;;;;22.03;5.07;;;11.20;99.90;;;;;;5110472;28;20207;-69
2023/01/05 04:35:51;;;;;;;26.13;6.03;;;11.10;99.90;;;;;;5110139;28;20757;-69
2023/01/05 04:38:18;;;;;;;23.93;4.80;;;11.20;99.90;;;;;;5110117;28;20382;-69
2023/01/05 04:40:49;;;;;;;31.30;5.00;;;11.20;99.90;;;;;;5110172;28;20253;-70
2023/01/05 04:43:18;;;;;;;21.40;4.93;;;11.20;99.90;;;;;;5109491;28;20330;-68
2023/01/05 04:45:46;;;;;;;28.50;5.20;;;11.20;99.90;;;;;;5109132;28;20223;-69
2023/01/05 04:48:14;;;;;;;28.83;6.17;;;11.20;99.90;;;;;;5109756;28;20233;-68
2023/01/05 04:50:41;;;;;;;32.43;5.23;;;11.20;99.90;;;;;;5106562;28;20236;-69
2023/01/05 04:53:08;;;;;;;25.70;5.53;;;11.20;99.90;;;;;;5090272;28;20734;-69
2023/01/05 04:55:35;;;;;;;25.47;4.37;;;11.10;99.90;;;;;;5102982;28;20200;-69
2023/01/05 04:58:02;;;;;;;24.03;4.80;;;11.10;99.90;;;;;;5111465;28;20200;-69
2023/01/05 05:00:37;;;;;;;26.70;5.10;;;;;;;;;;5097301;28;20220;-68
2023/01/05 05:03:04;;;;;;;30.67;5.43;;;11.10;99.90;;;;;;5114238;28;20315;-69
2023/01/05 05:05:32;;;;;;;31.37;5.70;;;11.10;99.90;;;;;;5113822;28;20199;-69
2023/01/05 05:07:58;;;;;;;28.27;4.93;;;11.10;99.90;;;;;;5092822;28;20305;-69
2023/01/05 05:10:25;;;;;;;32.87;5.43;;;11.20;99.90;;;;;;5111789;28;20234;-69
2023/01/05 05:12:52;;;;;;;27.43;4.67;;;11.10;99.90;;;;;;5113099;28;20758;-69
2023/01/05 05:15:19;;;;;;;21.07;6.07;;;11.10;99.90;;;;;;5113734;28;20401;-70
2023/01/05 05:17:45;;;;;;;27.93;4.73;;;11.20;99.90;;;;;;5113321;28;20259;-69
2023/01/05 05:20:12;;;;;;;25.83;4.20;;;11.20;99.90;;;;;;5113025;28;20239;-69
2023/01/05 05:22:39;;;;;;;29.10;6.50;;;11.20;99.90;;;;;;5113227;28;20590;-69
2023/01/05 05:25:06;;;;;;;21.70;4.90;;;11.20;99.90;;;;;;5095589;28;20215;-69
2023/01/05 05:27:33;;;;;;;37.07;6.83;;;11.20;99.90;;;;;;5112111;28;20226;-69
2023/01/05 05:30:00;;;;;;;33.97;5.97;;;11.20;99.90;;;;;;5113204;28;20643;-70
2023/01/05 05:32:26;;;;;;;21.30;4.63;;;11.20;99.90;;;;;;5113432;28;20254;-69
2023/01/05 05:34:53;;;;;;;27.67;5.27;;;11.20;99.90;;;;;;5113369;28;20248;-69
2023/01/05 05:37:20;;;;;;;28.87;5.37;;;11.20;99.90;;;;;;5113443;28;20219;-69
2023/01/05 05:39:46;;;;;;;23.07;4.87;;;11.20;99.90;;;;;;5113743;28;20203;-69
2023/01/05 05:42:13;;;;;;;32.87;5.57;;;11.20;99.90;;;;;;5110337;28;20282;-69
2023/01/05 05:44:40;;;;;;;25.27;4.73;;;11.20;99.90;;;;;;5112654;28;20325;-69
2023/01/05 05:47:06;;;;;;;25.30;4.60;;;11.20;99.90;;;;;;5080060;28;20670;-69
2023/01/05 05:49:33;;;;;;;31.07;4.90;;;11.20;99.90;;;;;;5113087;28;20218;-70
2023/01/05 05:52:00;;;;;;;24.00;4.97;;;11.30;99.90;;;;;;5093085;28;20235;-69
2023/01/05 05:54:26;;;;;;;22.37;5.03;;;11.30;99.90;;;;;;5112979;28;20225;-69
2023/01/05 05:56:53;;;;;;;21.00;5.13;;;11.20;99.90;;;;;;5112527;28;20289;-69
2023/01/05 05:59:20;;;;;;;27.83;6.53;;;11.20;99.90;;;;;;5112222;28;20268;-70
2023/01/05 06:01:47;;;;;;;28.67;5.07;;;11.20;99.90;;;;;;5112577;28;20226;-69
2023/01/05 06:04:13;;;;;;;28.40;5.80;;;11.20;99.90;;;;;;5110614;28;20559;-69
2023/01/05 06:06:40;;;;;;;25.53;5.50;;;11.10;99.90;;;;;;5109849;28;20250;-69
2023/01/05 06:09:07;;;;;;;23.37;4.60;;;11.20;99.90;;;;;;5107128;28;20207;-68
2023/01/05 06:11:34;;;;;;;24.50;4.33;;;11.20;99.90;;;;;;5093725;28;20242;-70
2023/01/05 06:14:01;;;;;;;23.23;4.23;;;11.20;99.90;;;;;;5109577;28;20206;-69
2023/01/05 06:16:28;;;;;;;28.67;4.70;;;11.20;99.90;;;;;;5091506;28;20649;-69
2023/01/05 06:18:55;;;;;;;25.97;5.07;;;11.20;99.90;;;;;;5110764;28;20203;-68
2023/01/05 06:21:22;;;;;;;23.50;4.60;;;11.30;99.90;;;;;;5091025;28;20314;-68
2023/01/05 06:23:49;;;;;;;28.20;4.77;;;11.30;99.90;;;;;;5110775;28;20199;-69
2023/01/05 06:26:16;;;;;;;26.03;5.23;;;11.30;99.90;;;;;;5110468;28;20233;-69
2023/01/05 06:28:42;;;;;;;31.60;5.20;;;11.30;99.90;;;;;;5110217;28;20801;-69
2023/01/05 06:31:09;;;;;;;29.90;4.57;;;11.30;99.90;;;;;;5109716;28;20223;-69
2023/01/05 06:33:36;;;;;;;23.90;4.43;;;11.30;99.90;;;;;;5109514;28;20252;-69
2023/01/05 06:36:03;;;;;;;27.10;4.80;;;11.30;99.90;;;;;;5110246;28;20305;-69
2023/01/05 06:38:30;;;;;;;28.10;4.50;;;11.30;99.90;;;;;;5110099;28;20664;-70
2023/01/05 06:40:57;;;;;;;29.67;5.10;;;11.20;99.90;;;;;;5110938;28;20209;-69
2023/01/05 06:43:23;;;;;;;29.93;5.23;;;11.30;99.90;;;;;;5109078;28;20316;-69
2023/01/05 06:45:51;;;;;;;25.63;5.13;;;11.20;99.90;;;;;;5104437;28;20201;-69
2023/01/05 06:48:18;;;;;;;28.90;6.00;;;11.30;99.90;;;;;;5109694;28;20188;-69
2023/01/05 06:50:45;;;;;;;20.17;4.47;;;11.30;99.90;;;;;;5102094;28;20285;-68
2023/01/05 06:53:12;;;;;;;28.93;5.30;;;11.30;99.90;;;;;;5106263;28;20222;-69
2023/01/05 06:55:38;;;;;;;25.20;5.20;;;11.30;99.90;;;;;;5109685;28;20197;-69
2023/01/05 06:58:05;;;;;;;24.57;4.53;;;11.20;99.90;;;;;;5111427;28;20314;-70
2023/01/05 07:00:32;;;;;;;21.47;4.63;;;11.20;99.90;;;;;;5107044;28;20287;-70
2023/01/05 07:02:59;;;;;;;30.00;4.57;;;11.20;99.90;;;;;;5105075;28;20227;-69
2023/01/05 07:05:25;;;;;;;30.97;6.57;;;11.20;99.90;;;;;;5108677;28;20229;-70
2023/01/05 07:07:52;;;;;;;27.70;5.97;;;11.20;99.90;;;;;;5107459;28;20670;-69
2023/01/05 07:10:19;;;;;;;37.27;6.00;;;11.20;99.90;;;;;;5109415;28;20256;-69
2023/01/05 07:12:45;;;;;;;23.20;4.40;;;11.20;99.90;;;;;;5111169;28;20315;-69
2023/01/05 07:15:12;;;;;;;31.10;5.37;;;11.20;99.90;;;;;;5086183;28;20199;-69
2023/01/05 07:17:39;;;;;;;31.33;5.20;;;11.20;99.90;;;;;;5107295;28;20215;-69
2023/01/05 07:20:06;;;;;;;32.27;5.67;;;11.10;99.90;;;;;;5101916;28;20326;-70
2023/01/05 07:22:33;;;;;;;26.77;5.00;;;11.20;99.90;;;;;;5071823;28;20207;-70
2023/01/05 07:25:00;;;;;;;25.47;5.13;;;11.20;99.90;;;;;;5106351;27;20227;-71
2023/01/05 07:27:27;;;;;;;29.47;5.73;;;11.20;99.90;;;;;;5100259;28;20251;-69
2023/01/05 07:29:53;;;;;;;29.60;5.87;;;11.20;99.90;;;;;;5081213;28;20223;-69
2023/01/05 07:32:20;;;;;;;40.00;6.63;;;11.20;99.90;;;;;;5106085;28;20307;-69
2023/01/05 07:34:47;;;;;;;27.40;5.97;;;11.20;99.90;;;;;;5105226;28;20273;-69
2023/01/05 07:37:23;;;;;;;21.57;5.47;;;11.20;99.90;;;;;;5097928;28;20219;-69
2023/01/05 07:39:51;;;;;;;34.83;6.37;;;11.20;99.90;;;;;;5098423;28;20278;-69
2023/01/05 07:42:18;;;;;;;26.80;5.47;;;11.20;99.90;;;;;;5105659;28;20294;-69
2023/01/05 07:44:44;;;;;;;30.10;5.70;;;11.20;99.90;;;;;;5107553;28;20622;-69
2023/01/05 07:47:11;;;;;;;34.73;5.93;;;11.20;99.90;;;;;;5107005;28;20307;-69
2023/01/05 07:49:38;;;;;;;29.27;5.27;;;11.20;99.90;;;;;;5104556;28;20307;-70
2023/01/05 07:52:04;;;;;;;24.13;5.70;;;11.20;99.90;;;;;;5102209;28;20735;-70
2023/01/05 07:54:33;;;;;;;27.13;5.63;;;11.20;99.90;;;;;;5107377;28;20637;-70
2023/01/05 07:57:00;;;;;;;30.23;5.60;;;11.30;99.90;;;;;;5104486;28;20641;-71
2023/01/05 07:59:29;;;;;;;24.30;5.20;;;11.20;99.90;;;;;;5105998;28;20302;-69
2023/01/05 08:01:56;;;;;;;40.93;5.20;;;11.20;99.90;;;;;;5090223;28;20210;-69
2023/01/05 08:04:23;;;;;;;22.70;5.90;;;11.20;99.90;;;;;;5087769;28;20232;-69
2023/01/05 08:06:51;;;;;;;26.27;5.10;;;11.30;99.90;;;;;;5087720;28;20219;-69
2023/01/05 08:12:03;;;;;;;30.63;5.77;;;11.20;99.90;;;;;;5100170;28;20201;-70
2023/01/05 08:14:30;;;;;;;26.37;5.47;;;11.20;99.90;;;;;;5102150;28;20322;-69
2023/01/05 08:16:57;;;;;;;36.47;6.93;;;11.20;99.90;;;;;;5107231;28;20242;-69
2023/01/05 08:19:23;;;;;;;27.80;5.20;;;11.20;99.90;;;;;;5085932;28;20636;-69
2023/01/05 08:21:50;;;;;;;29.97;6.03;;;11.20;99.90;;;;;;5107674;28;20291;-68
2023/01/05 08:24:17;;;;;;;23.67;5.60;;;11.20;99.90;;;;;;5104753;28;20662;-68
2023/01/05 08:26:44;;;;;;;26.27;5.03;;;11.30;99.90;;;;;;5097200;28;20318;-69
2023/01/05 08:29:10;;;;;;;29.13;4.77;;;11.20;99.90;;;;;;5101925;28;20622;-69
2023/01/05 08:31:39;;;;;;;26.57;5.57;;;11.20;99.90;;;;;;5101935;28;20209;-70
2023/01/05 08:34:06;;;;;;;22.57;4.90;;;11.20;99.90;;;;;;5102684;28;20324;-69
2023/01/05 08:36:33;;;;;;;26.70;5.63;;;11.30;99.90;;;;;;5103259;28;20234;-69
2023/01/05 08:39:00;;;;;;;27.90;5.43;;;11.30;99.90;;;;;;5106587;28;20302;-68
2023/01/05 08:41:30;;;;;;;28.23;5.80;;;11.30;99.90;;;;;;5106727;28;20211;-69
2023/01/05 08:43:59;;;;;;;28.60;5.97;;;11.30;99.90;;;;;;5109707;28;20309;-70
2023/01/05 08:46:29;;;;;;;29.60;5.57;;;11.20;99.90;;;;;;5104939;28;20306;-70
2023/01/05 08:48:58;;;;;;;28.93;5.43;;;11.30;99.90;;;;;;5110463;28;20210;-68
2023/01/05 08:51:26;;;;;;;28.57;5.57;;;11.30;99.90;;;;;;5107051;28;20280;-68
2023/01/05 08:53:54;;;;;;;26.03;5.40;;;11.30;99.90;;;;;;5109380;28;20590;-69
2023/01/05 08:56:23;;;;;;;34.30;5.70;;;11.30;99.90;;;;;;5088363;28;20238;-69
2023/01/05 08:58:51;;;;;;;21.93;4.57;;;11.30;99.90;;;;;;5109524;28;20204;-69
2023/01/05 09:01:20;;;;;;;25.53;5.43;;;11.30;99.90;;;;;;5105774;28;20215;-70
2023/01/05 09:03:48;;;;;;;25.43;5.03;;;11.30;99.90;;;;;;5106772;28;20195;-69
2023/01/05 09:06:18;;;;;;;24.10;5.10;;;11.30;99.90;;;;;;5107611;28;20295;-69
2023/01/05 09:08:45;;;;;;;32.40;6.57;;;11.30;99.90;;;;;;5110185;28;20222;-69
2023/01/05 09:11:18;;;;;;;26.27;5.97;;;11.30;99.90;;;;;;5101886;28;20652;-69
2023/01/05 09:13:50;;;;;;;23.13;4.70;;;11.30;99.90;;;;;;5107405;28;20229;-69
2023/01/05 09:16:20;;;;;;;29.30;4.77;;;11.30;99.90;;;;;;5106097;28;20307;-70
2023/01/05 09:19:07;;;;;;;24.67;5.47;;;11.40;99.90;;;;;;5092987;28;20572;-69
2023/01/05 09:21:34;;;;;;;26.07;5.87;;;11.40;99.90;;;;;;5103399;28;20254;-68
2023/01/05 09:24:01;;;;;;;27.70;5.50;;;11.40;99.90;;;;;;5103125;28;20738;-68
2023/01/05 09:26:28;;;;;;;28.67;5.27;;;11.40;99.90;;;;;;5105264;28;20199;-69
2023/01/05 09:28:54;;;;;;;23.00;5.07;;;11.50;99.90;;;;;;5103742;28;20634;-69
2023/01/05 09:31:21;;;;;;;32.70;4.93;;;11.40;99.90;;;;;;5108175;28;20410;-69
2023/01/05 09:33:49;;;;;;;33.00;5.47;;;11.40;99.90;;;;;;5107827;28;20207;-69
2023/01/05 09:36:17;;;;;;;19.13;4.40;;;11.40;99.90;;;;;;5107960;28;20199;-69
2023/01/05 09:38:48;;;;;;;28.17;5.60;;;11.40;99.90;;;;;;5101981;28;20286;-68
2023/01/05 09:41:36;;;;;;;26.20;5.30;;;11.40;99.90;;;;;;5104446;28;20568;-68
2023/01/05 09:44:10;;;;;;;29.83;5.33;;;11.40;99.90;;;;;;5103295;28;20318;-69
2023/01/05 09:46:41;;;;;;;30.07;4.47;;;11.40;99.90;;;;;;5108996;28;20240;-68
2023/01/05 09:49:13;;;;;;;26.90;4.77;;;11.40;99.90;;;;;;5111062;28;20618;-69
2023/01/05 09:51:41;;;;;;;26.30;5.00;;;11.40;99.90;;;;;;5108951;28;20257;-68
2023/01/05 09:54:18;;;;;;;25.47;5.23;;;11.50;99.90;;;;;;5105478;28;20199;-68
2023/01/05 09:56:46;;;;;;;23.97;5.17;;;11.50;99.90;;;;;;5101892;28;20200;-69
2023/01/05 09:59:39;;;;;;;32.33;5.83;;;11.50;99.90;;;;;;5092050;28;20199;-68
2023/01/05 10:02:16;;;;;;;22.40;4.90;;;11.50;99.90;;;;;;5105051;28;20308;-68
2023/01/05 10:04:44;;;;;;;26.67;5.57;;;11.50;99.90;;;;;;5105704;28;20356;-68
2023/01/05 10:07:40;;;;;;;24.77;4.93;;;11.50;99.90;;;;;;5108498;28;20718;-68
2023/01/05 10:10:19;;;;;;;24.13;4.70;;;11.60;99.90;;;;;;5105583;28;20263;-69
2023/01/05 10:13:05;;;;;;;26.67;4.67;;;11.70;99.90;;;;;;5094520;28;20199;-69
2023/01/05 10:15:51;;;;;;;25.20;5.37;;;11.80;99.90;;;;;;5102866;28;20210;-70
2023/01/05 10:18:23;;;;;;;29.40;5.83;;;11.80;99.90;;;;;;5108696;28;20245;-69
2023/01/05 10:20:58;;;;;;;33.87;5.13;;;11.80;99.90;;;;;;5090788;28;20207;-69
2023/01/05 10:24:03;;;;;;;21.10;5.20;;;11.80;99.90;;;;;;5103165;28;20203;-70
2023/01/05 10:26:50;;;;;;;22.77;4.70;;;11.80;99.90;;;;;;5102182;28;20274;-69
2023/01/05 10:29:45;;;;;;;24.13;4.73;;;11.80;99.90;;;;;;5108766;28;20199;-68
2023/01/05 10:32:35;;;;;;;30.77;5.23;;;11.90;99.90;;;;;;5108214;28;20215;-69
2023/01/05 10:35:18;;;;;;;23.93;5.60;;;11.90;99.90;;;;;;5106555;28;20192;-69
2023/01/05 10:38:16;;;;;;;26.03;5.93;;;11.90;99.90;;;;;;5108635;28;20207;-69
2023/01/05 10:41:04;;;;;;;22.30;5.70;;;11.90;99.90;;;;;;5104300;28;20635;-69
2023/01/05 10:44:10;;;;;;;25.27;4.97;;;12.00;99.90;;;;;;5089279;28;20292;-70
2023/01/05 10:46:44;;;;;;;26.23;4.57;;;12.00;99.90;;;;;;5094532;28;20292;-69
2023/01/05 10:49:28;;;;;;;24.93;4.40;;;12.00;99.90;;;;;;5095262;28;20322;-69
2023/01/05 10:51:58;;;;;;;25.73;5.30;;;12.00;99.90;;;;;;5104430;28;20309;-69
2023/01/05 10:54:39;;;;;;;22.37;5.17;;;12.00;99.90;;;;;;5088090;28;20221;-69
2023/01/05 10:57:31;;;;;;;31.43;6.30;;;12.00;99.90;;;;;;5103083;28;20203;-69
2023/01/05 11:00:09;;;;;;;28.90;5.37;;;12.10;99.90;;;;;;5102874;28;20196;-70
2023/01/05 11:02:59;;;;;;;18.47;4.80;;;12.00;99.90;;;;;;5102610;28;20211;-70
2023/01/05 11:05:38;;;;;;;24.50;5.20;;;12.00;99.90;;;;;;5102571;28;20198;-69
2023/01/05 11:08:12;;;;;;;32.80;5.20;;;12.00;99.90;;;;;;5107616;28;20226;-68
2023/01/05 11:10:51;;;;;;;22.73;5.07;;;12.00;99.90;;;;;;5102769;28;20533;-69
2023/01/05 11:13:34;;;;;;;27.10;4.97;;;12.00;99.90;;;;;;5103708;28;20257;-69
2023/01/05 11:16:10;;;;;;;27.67;5.07;;;12.00;99.90;;;;;;5087682;28;20223;-69
2023/01/05 11:18:57;;;;;;;26.10;4.90;;;12.00;99.90;;;;;;5107692;28;20187;-68
2023/01/05 11:21:27;;;;;;;33.67;6.63;;;12.00;99.90;;;;;;5104422;28;20309;-69
2023/01/05 11:23:57;;;;;;;28.27;5.10;;;12.00;99.90;;;;;;5107593;28;20196;-70
2023/01/05 11:26:26;;;;;;;25.83;4.77;;;12.10;99.90;;;;;;5106817;28;20290;-69
2023/01/05 11:29:08;;;;;;;28.20;5.30;;;12.20;99.90;;;;;;5100667;28;20306;-68
2023/01/05 11:31:41;;;;;;;20.73;5.03;;;12.30;99.90;;;;;;5099109;28;20880;-70
2023/01/05 11:34:24;;;;;;;26.27;5.87;;;12.20;99.90;;;;;;5087953;28;20479;-69
2023/01/05 11:37:10;;;;;;;27.53;5.53;;;12.20;99.90;;;;;;5104164;28;20578;-69
2023/01/05 11:39:49;;;;;;;19.70;5.10;;;12.20;99.90;;;;;;5105025;28;20254;-69
2023/01/05 11:42:24;;;;;;;21.63;4.23;;;12.20;99.90;;;;;;5086700;28;20310;-70
2023/01/05 11:45:19;;;;;;;23.43;4.87;;;12.20;99.90;;;;;;5101828;28;20325;-70
2023/01/05 11:47:55;;;;;;;20.50;4.43;;;12.20;99.90;;;;;;5085071;28;20237;-70
2023/01/05 11:50:26;;;;;;;24.07;4.70;;;12.20;99.90;;;;;;5097534;28;20276;-71
2023/01/05 11:52:58;;;;;;;20.10;4.33;;;12.20;99.90;;;;;;5102249;28;20199;-70
2023/01/05 11:55:39;;;;;;;22.97;4.10;;;12.20;99.90;;;;;;5102791;28;20290;-70
2023/01/05 11:58:26;;;;;;;25.13;4.43;;;12.20;99.90;;;;;;5099440;28;20616;-70
2023/01/05 12:01:16;;;;;;;20.50;4.47;;;12.30;99.90;;;;;;5097813;28;20759;-71
2023/01/05 12:04:05;;;;;;;27.63;6.20;;;12.30;99.90;;;;;;5101258;28;20199;-69
2023/01/05 12:06:48;;;;;;;42.60;7.07;;;12.30;99.90;;;;;;5085900;28;20234;-69
2023/01/05 12:09:23;;;;;;;23.20;4.77;;;12.30;99.90;;;;;;5102311;28;20285;-69
2023/01/05 12:12:18;;;;;;;25.73;5.37;;;12.30;99.90;;;;;;5103454;28;20690;-69
2023/01/05 12:15:09;;;;;;;26.47;4.87;;;12.30;99.90;;;;;;5102108;28;20271;-70
2023/01/05 12:17:58;;;;;;;23.03;4.53;;;12.30;99.90;;;;;;5099950;28;20258;-69
2023/01/05 12:20:40;;;;;;;24.13;5.87;;;12.30;99.90;;;;;;5100996;28;20718;-69
2023/01/05 12:23:18;;;;;;;23.43;4.33;;;12.40;99.90;;;;;;5089422;28;21782;-70
2023/01/05 12:25:53;;;;;;;21.73;4.83;;;12.40;99.90;;;;;;5078330;28;20729;-70
2023/01/05 12:28:41;;;;;;;23.67;4.83;;;12.40;99.90;;;;;;5085857;28;20313;-70
2023/01/05 12:31:34;;;;;;;19.10;4.60;;;12.40;99.90;;;;;;5104033;28;20241;-70
2023/01/05 12:34:53;;;;;;;28.70;4.77;;;12.40;99.90;;;;;;5100333;28;20605;-69
2023/01/05 12:37:44;;;;;;;27.13;5.97;;;12.40;99.90;;;;;;5100807;28;20654;-69
2023/01/05 12:40:41;;;;;;;29.10;5.23;;;12.40;99.90;;;;;;5099690;28;20198;-70
2023/01/05 12:43:12;;;;;;;27.20;6.47;;;12.50;99.90;;;;;;5062354;28;1055747;-70
2023/01/05 12:46:03;;;;;;;18.07;4.20;;;12.40;99.90;;;;;;5105252;28;20211;-68
2023/01/05 12:48:38;;;;;;;22.20;5.30;;;12.40;99.90;;;;;;5105917;28;20231;-71
2023/01/05 12:51:42;;;;;;;26.60;4.70;;;12.40;99.90;;;;;;5101100;28;20230;-70
2023/01/05 12:54:20;;;;;;;24.87;5.37;;;12.50;99.90;;;;;;5097226;28;20582;-68
2023/01/05 12:56:52;;;;;;;24.17;5.00;;;12.50;99.90;;;;;;5100042;28;20206;-68
2023/01/05 12:59:33;;;;;;;27.27;4.20;;;12.60;99.90;;;;;;5100710;28;20326;-70
2023/01/05 13:02:25;;;;;;;20.77;5.00;;;12.70;99.90;;;;;;5105219;28;20207;-70
2023/01/05 13:04:55;;;;;;;21.27;4.20;;;12.60;99.90;;;;;;5106865;28;20199;-69
2023/01/05 13:07:37;;;;;;;26.63;4.70;;;12.70;99.90;;;;;;5102420;28;20195;-70
2023/01/05 13:10:27;;;;;;;18.57;5.17;;;12.70;99.90;;;;;;5103886;28;20290;-70
2023/01/05 13:12:57;;;;;;;26.33;5.03;;;12.70;99.90;;;;;;5107776;28;21091;-70
2023/01/05 13:15:31;;;;;;;33.60;5.10;;;12.60;99.90;;;;;;5107027;28;20196;-69
2023/01/05 13:18:07;;;;;;;21.00;4.87;;;12.70;99.90;;;;;;5086658;28;20218;-70
2023/01/05 13:20:47;;;;;;;22.93;4.97;;;12.60;99.90;;;;;;5105520;28;20234;-69
2023/01/05 13:23:24;;;;;;;18.67;4.47;;;12.60;99.90;;;;;;5106569;28;20298;-70
2023/01/05 13:26:17;;;;;;;23.00;4.77;;;12.60;99.90;;;;;;5107574;28;20304;-69
2023/01/05 13:28:49;;;;;;;26.50;5.00;;;12.50;99.90;;;;;;5110346;28;20219;-70
2023/01/05 13:31:34;;;;;;;22.87;4.17;;;12.40;99.90;;;;;;5111948;28;20389;-71
2023/01/05 13:34:25;;;;;;;22.63;4.27;;;12.40;99.90;;;;;;5105185;28;20199;-69
2023/01/05 13:37:08;;;;;;;15.87;4.63;;;12.50;99.90;;;;;;5108022;28;20200;-70
2023/01/05 13:39:34;;;;;;;16.90;4.67;;;12.50;99.90;;;;;;5105571;28;20584;-70